sensor_id;sensor_type;location;lat;lon;timestamp;P1;durP1;ratioP1;P2;durP2;ratioP2
27213;SDS011;14723;55.814;37.460;2023-05-07T00:00:52;9.90;;;4.80;;
27213;SDS011;14723;55.814;37.460;2023-05-07T00:03:57;7.40;;;4.43;;
27213;SDS011;14723;55.814;37.460;2023-05-07T00:07:03;10.25;;;4.55;;
27213;SDS011;14723;55.814;37.460;2023-05-07T00:10:09;7.72;;;4.55;;
27213;SDS011;14723;55.814;37.460;2023-05-07T00:13:15;8.43;;;5.07;;
27213;SDS011;14723;55.814;37.460;2023-05-07T00:16:23;9.55;;;4.80;;
27213;SDS011;14723;55.814;37.460;2023-05-07T00:19:29;9.63;;;4.97;;
27213;SDS011;14723;55.814;37.460;2023-05-07T00:22:35;7.70;;;4.57;;
27213;SDS011;14723;55.814;37.460;2023-05-07T00:25:41;12.10;;;4.50;;
27213;SDS011;14723;55.814;37.460;2023-05-07T00:28:46;11.18;;;4.35;;
27213;SDS011;14723;55.814;37.460;2023-05-07T00:31:54;6.90;;;4.28;;
27213;SDS011;14723;55.814;37.460;2023-05-07T00:35:00;9.43;;;4.43;;
27213;SDS011;14723;55.814;37.460;2023-05-07T00:38:06;10.82;;;4.60;;
27213;SDS011;14723;55.814;37.460;2023-05-07T00:41:11;9.32;;;4.10;;
27213;SDS011;14723;55.814;37.460;2023-05-07T00:44:17;10.15;;;4.78;;
27213;SDS011;14723;55.814;37.460;2023-05-07T00:47:25;6.68;;;4.30;;
27213;SDS011;14723;55.814;37.460;2023-05-07T00:50:31;7.50;;;4.25;;
27213;SDS011;14723;55.814;37.460;2023-05-07T00:53:37;9.63;;;4.68;;
27213;SDS011;14723;55.814;37.460;2023-05-07T00:56:43;7.78;;;4.45;;
27213;SDS011;14723;55.814;37.460;2023-05-07T00:59:48;9.13;;;4.57;;
27213;SDS011;14723;55.814;37.460;2023-05-07T01:02:57;7.68;;;4.10;;
27213;SDS011;14723;55.814;37.460;2023-05-07T01:06:03;8.07;;;4.43;;
27213;SDS011;14723;55.814;37.460;2023-05-07T01:09:09;7.93;;;4.40;;
27213;SDS011;14723;55.814;37.460;2023-05-07T01:12:15;7.60;;;4.53;;
27213;SDS011;14723;55.814;37.460;2023-05-07T01:15:21;7.00;;;4.00;;
27213;SDS011;14723;55.814;37.460;2023-05-07T01:18:28;9.02;;;4.60;;
27213;SDS011;14723;55.814;37.460;2023-05-07T01:21:35;8.50;;;4.13;;
27213;SDS011;14723;55.814;37.460;2023-05-07T01:24:45;8.85;;;3.85;;
27213;SDS011;14723;55.814;37.460;2023-05-07T01:27:51;5.90;;;3.92;;
27213;SDS011;14723;55.814;37.460;2023-05-07T01:31:02;6.75;;;4.38;;
27213;SDS011;14723;55.814;37.460;2023-05-07T01:34:09;6.90;;;4.00;;
27213;SDS011;14723;55.814;37.460;2023-05-07T01:37:16;11.02;;;4.57;;
27213;SDS011;14723;55.814;37.460;2023-05-07T01:40:25;6.53;;;4.20;;
27213;SDS011;14723;55.814;37.460;2023-05-07T01:43:30;11.88;;;6.45;;
27213;SDS011;14723;55.814;37.460;2023-05-07T01:46:36;8.93;;;5.35;;
27213;SDS011;14723;55.814;37.460;2023-05-07T01:49:41;11.88;;;6.88;;
27213;SDS011;14723;55.814;37.460;2023-05-07T01:52:49;14.80;;;8.13;;
27213;SDS011;14723;55.814;37.460;2023-05-07T01:55:58;14.30;;;8.05;;
27213;SDS011;14723;55.814;37.460;2023-05-07T01:59:04;20.00;;;8.77;;
27213;SDS011;14723;55.814;37.460;2023-05-07T02:02:09;17.63;;;9.70;;
27213;SDS011;14723;55.814;37.460;2023-05-07T02:05:17;16.25;;;9.65;;
27213;SDS011;14723;55.814;37.460;2023-05-07T02:08:29;15.18;;;9.50;;
27213;SDS011;14723;55.814;37.460;2023-05-07T02:11:38;12.93;;;6.97;;
27213;SDS011;14723;55.814;37.460;2023-05-07T02:14:43;10.57;;;6.75;;
27213;SDS011;14723;55.814;37.460;2023-05-07T02:17:59;12.48;;;7.13;;
27213;SDS011;14723;55.814;37.460;2023-05-07T02:21:05;12.25;;;7.00;;
27213;SDS011;14723;55.814;37.460;2023-05-07T02:24:10;10.05;;;6.45;;
27213;SDS011;14723;55.814;37.460;2023-05-07T02:27:18;13.80;;;7.07;;
27213;SDS011;14723;55.814;37.460;2023-05-07T02:33:31;11.45;;;5.85;;
27213;SDS011;14723;55.814;37.460;2023-05-07T02:36:40;10.98;;;5.85;;
27213;SDS011;14723;55.814;37.460;2023-05-07T02:39:48;8.60;;;5.13;;
27213;SDS011;14723;55.814;37.460;2023-05-07T02:42:56;8.02;;;5.40;;
27213;SDS011;14723;55.814;37.460;2023-05-07T02:46:02;8.27;;;4.80;;
27213;SDS011;14723;55.814;37.460;2023-05-07T02:49:10;8.82;;;4.90;;
27213;SDS011;14723;55.814;37.460;2023-05-07T02:52:16;5.90;;;4.10;;
27213;SDS011;14723;55.814;37.460;2023-05-07T02:55:22;8.57;;;5.07;;
27213;SDS011;14723;55.814;37.460;2023-05-07T02:58:30;7.40;;;4.03;;
27213;SDS011;14723;55.814;37.460;2023-05-07T03:01:37;6.53;;;3.88;;
27213;SDS011;14723;55.814;37.460;2023-05-07T03:04:43;6.75;;;4.15;;
27213;SDS011;14723;55.814;37.460;2023-05-07T03:07:49;10.30;;;4.15;;
27213;SDS011;14723;55.814;37.460;2023-05-07T03:10:54;8.65;;;4.68;;
27213;SDS011;14723;55.814;37.460;2023-05-07T03:14:03;5.63;;;3.85;;
27213;SDS011;14723;55.814;37.460;2023-05-07T03:17:08;7.70;;;4.32;;
27213;SDS011;14723;55.814;37.460;2023-05-07T03:20:14;8.40;;;3.95;;
27213;SDS011;14723;55.814;37.460;2023-05-07T03:23:19;9.30;;;4.40;;
27213;SDS011;14723;55.814;37.460;2023-05-07T03:26:26;9.52;;;4.25;;
27213;SDS011;14723;55.814;37.460;2023-05-07T03:29:33;6.32;;;3.38;;
27213;SDS011;14723;55.814;37.460;2023-05-07T03:32:39;11.48;;;4.60;;
27213;SDS011;14723;55.814;37.460;2023-05-07T03:35:46;5.95;;;3.58;;
27213;SDS011;14723;55.814;37.460;2023-05-07T03:38:56;6.05;;;3.60;;
27213;SDS011;14723;55.814;37.460;2023-05-07T03:42:09;6.60;;;3.70;;
27213;SDS011;14723;55.814;37.460;2023-05-07T03:45:18;8.93;;;4.22;;
27213;SDS011;14723;55.814;37.460;2023-05-07T03:48:32;8.02;;;3.75;;
27213;SDS011;14723;55.814;37.460;2023-05-07T03:51:37;6.68;;;3.65;;
27213;SDS011;14723;55.814;37.460;2023-05-07T03:54:43;9.70;;;3.97;;
27213;SDS011;14723;55.814;37.460;2023-05-07T03:57:50;8.50;;;4.43;;
27213;SDS011;14723;55.814;37.460;2023-05-07T04:00:59;7.47;;;3.67;;
27213;SDS011;14723;55.814;37.460;2023-05-07T04:04:04;9.13;;;3.88;;
27213;SDS011;14723;55.814;37.460;2023-05-07T04:07:11;7.30;;;3.60;;
27213;SDS011;14723;55.814;37.460;2023-05-07T04:10:19;9.05;;;3.90;;
27213;SDS011;14723;55.814;37.460;2023-05-07T04:13:28;7.00;;;3.65;;
27213;SDS011;14723;55.814;37.460;2023-05-07T04:16:39;8.13;;;3.78;;
27213;SDS011;14723;55.814;37.460;2023-05-07T04:19:44;6.53;;;3.67;;
27213;SDS011;14723;55.814;37.460;2023-05-07T04:22:51;10.57;;;4.07;;
27213;SDS011;14723;55.814;37.460;2023-05-07T04:25:56;9.60;;;4.10;;
27213;SDS011;14723;55.814;37.460;2023-05-07T04:29:11;5.85;;;3.50;;
27213;SDS011;14723;55.814;37.460;2023-05-07T04:32:19;8.40;;;3.88;;
27213;SDS011;14723;55.814;37.460;2023-05-07T04:35:27;10.35;;;4.47;;
27213;SDS011;14723;55.814;37.460;2023-05-07T04:38:33;5.30;;;3.33;;
27213;SDS011;14723;55.814;37.460;2023-05-07T04:41:39;5.70;;;3.20;;
27213;SDS011;14723;55.814;37.460;2023-05-07T04:44:46;7.13;;;3.67;;
27213;SDS011;14723;55.814;37.460;2023-05-07T04:47:54;7.55;;;2.80;;
27213;SDS011;14723;55.814;37.460;2023-05-07T04:51:00;5.05;;;3.10;;
27213;SDS011;14723;55.814;37.460;2023-05-07T04:54:05;5.20;;;2.92;;
27213;SDS011;14723;55.814;37.460;2023-05-07T04:57:11;6.72;;;2.75;;
27213;SDS011;14723;55.814;37.460;2023-05-07T05:00:17;4.07;;;2.80;;
27213;SDS011;14723;55.814;37.460;2023-05-07T05:03:27;4.18;;;2.55;;
27213;SDS011;14723;55.814;37.460;2023-05-07T05:06:33;6.53;;;2.22;;
27213;SDS011;14723;55.814;37.460;2023-05-07T05:09:40;3.03;;;2.00;;
27213;SDS011;14723;55.814;37.460;2023-05-07T05:12:46;4.25;;;2.22;;
27213;SDS011;14723;55.814;37.460;2023-05-07T05:15:52;6.00;;;2.28;;
27213;SDS011;14723;55.814;37.460;2023-05-07T05:19:02;4.63;;;2.20;;
27213;SDS011;14723;55.814;37.460;2023-05-07T05:22:12;3.97;;;2.20;;
27213;SDS011;14723;55.814;37.460;2023-05-07T05:25:17;4.93;;;2.10;;
27213;SDS011;14723;55.814;37.460;2023-05-07T05:28:23;4.88;;;2.08;;
27213;SDS011;14723;55.814;37.460;2023-05-07T05:31:30;3.05;;;1.90;;
27213;SDS011;14723;55.814;37.460;2023-05-07T05:34:38;2.78;;;2.10;;
27213;SDS011;14723;55.814;37.460;2023-05-07T05:37:44;2.85;;;2.10;;
27213;SDS011;14723;55.814;37.460;2023-05-07T05:40:52;2.65;;;1.65;;
27213;SDS011;14723;55.814;37.460;2023-05-07T05:43:58;2.42;;;1.90;;
27213;SDS011;14723;55.814;37.460;2023-05-07T05:47:04;3.17;;;1.98;;
27213;SDS011;14723;55.814;37.460;2023-05-07T05:50:12;2.38;;;1.80;;
27213;SDS011;14723;55.814;37.460;2023-05-07T05:53:18;5.05;;;1.90;;
27213;SDS011;14723;55.814;37.460;2023-05-07T05:56:24;2.53;;;1.90;;
27213;SDS011;14723;55.814;37.460;2023-05-07T05:59:29;6.45;;;2.25;;
27213;SDS011;14723;55.814;37.460;2023-05-07T06:02:35;5.85;;;1.83;;
27213;SDS011;14723;55.814;37.460;2023-05-07T06:05:44;3.72;;;2.30;;
27213;SDS011;14723;55.814;37.460;2023-05-07T06:08:50;4.03;;;1.98;;
27213;SDS011;14723;55.814;37.460;2023-05-07T06:12:03;3.72;;;1.63;;
27213;SDS011;14723;55.814;37.460;2023-05-07T06:15:10;3.63;;;2.15;;
27213;SDS011;14723;55.814;37.460;2023-05-07T06:18:17;2.00;;;1.80;;
27213;SDS011;14723;55.814;37.460;2023-05-07T06:21:25;4.82;;;1.80;;
27213;SDS011;14723;55.814;37.460;2023-05-07T06:24:30;3.22;;;1.88;;
27213;SDS011;14723;55.814;37.460;2023-05-07T06:27:36;4.50;;;2.10;;
27213;SDS011;14723;55.814;37.460;2023-05-07T06:30:42;3.85;;;2.00;;
27213;SDS011;14723;55.814;37.460;2023-05-07T06:33:49;2.08;;;1.60;;
27213;SDS011;14723;55.814;37.460;2023-05-07T06:37:01;4.07;;;1.83;;
27213;SDS011;14723;55.814;37.460;2023-05-07T06:40:42;2.25;;;1.70;;
27213;SDS011;14723;55.814;37.460;2023-05-07T06:43:48;2.28;;;1.60;;
27213;SDS011;14723;55.814;37.460;2023-05-07T06:47:17;3.33;;;1.50;;
27213;SDS011;14723;55.814;37.460;2023-05-07T06:50:26;3.13;;;1.52;;
27213;SDS011;14723;55.814;37.460;2023-05-07T06:53:36;2.47;;;1.50;;
27213;SDS011;14723;55.814;37.460;2023-05-07T06:56:44;3.00;;;1.52;;
27213;SDS011;14723;55.814;37.460;2023-05-07T06:59:51;4.32;;;1.67;;
27213;SDS011;14723;55.814;37.460;2023-05-07T07:02:56;7.32;;;2.05;;
27213;SDS011;14723;55.814;37.460;2023-05-07T07:06:04;2.50;;;1.88;;
27213;SDS011;14723;55.814;37.460;2023-05-07T07:09:12;3.95;;;1.88;;
27213;SDS011;14723;55.814;37.460;2023-05-07T07:12:18;4.20;;;2.10;;
27213;SDS011;14723;55.814;37.460;2023-05-07T07:15:26;2.70;;;1.80;;
27213;SDS011;14723;55.814;37.460;2023-05-07T07:18:32;2.67;;;1.60;;
27213;SDS011;14723;55.814;37.460;2023-05-07T07:21:38;1.67;;;1.38;;
27213;SDS011;14723;55.814;37.460;2023-05-07T07:24:48;2.25;;;1.23;;
27213;SDS011;14723;55.814;37.460;2023-05-07T07:27:54;2.92;;;1.50;;
27213;SDS011;14723;55.814;37.460;2023-05-07T07:31:01;2.08;;;1.35;;
27213;SDS011;14723;55.814;37.460;2023-05-07T07:34:07;4.22;;;1.17;;
27213;SDS011;14723;55.814;37.460;2023-05-07T07:37:12;2.42;;;1.30;;
27213;SDS011;14723;55.814;37.460;2023-05-07T07:40:21;3.40;;;1.05;;
27213;SDS011;14723;55.814;37.460;2023-05-07T07:43:27;1.75;;;1.33;;
27213;SDS011;14723;55.814;37.460;2023-05-07T07:46:33;2.38;;;1.63;;
27213;SDS011;14723;55.814;37.460;2023-05-07T07:49:38;1.88;;;1.35;;
27213;SDS011;14723;55.814;37.460;2023-05-07T07:52:45;2.85;;;1.23;;
27213;SDS011;14723;55.814;37.460;2023-05-07T07:55:54;2.80;;;1.67;;
27213;SDS011;14723;55.814;37.460;2023-05-07T07:59:05;1.23;;;1.10;;
27213;SDS011;14723;55.814;37.460;2023-05-07T08:02:13;5.70;;;1.58;;
27213;SDS011;14723;55.814;37.460;2023-05-07T08:05:19;1.23;;;1.13;;
27213;SDS011;14723;55.814;37.460;2023-05-07T08:08:25;1.92;;;1.20;;
27213;SDS011;14723;55.814;37.460;2023-05-07T08:11:34;3.05;;;1.15;;
27213;SDS011;14723;55.814;37.460;2023-05-07T08:14:40;3.08;;;1.15;;
27213;SDS011;14723;55.814;37.460;2023-05-07T08:17:45;2.03;;;1.10;;
27213;SDS011;14723;55.814;37.460;2023-05-07T08:20:52;1.75;;;0.98;;
27213;SDS011;14723;55.814;37.460;2023-05-07T08:24:00;2.38;;;1.42;;
27213;SDS011;14723;55.814;37.460;2023-05-07T08:27:08;1.08;;;0.95;;
27213;SDS011;14723;55.814;37.460;2023-05-07T08:30:16;3.15;;;1.05;;
27213;SDS011;14723;55.814;37.460;2023-05-07T08:33:22;2.38;;;1.42;;
27213;SDS011;14723;55.814;37.460;2023-05-07T08:36:28;2.20;;;1.73;;
27213;SDS011;14723;55.814;37.460;2023-05-07T08:39:33;2.70;;;1.60;;
27213;SDS011;14723;55.814;37.460;2023-05-07T08:42:48;2.97;;;1.48;;
27213;SDS011;14723;55.814;37.460;2023-05-07T08:45:55;2.15;;;1.67;;
27213;SDS011;14723;55.814;37.460;2023-05-07T08:49:04;2.47;;;1.42;;
27213;SDS011;14723;55.814;37.460;2023-05-07T08:52:11;4.68;;;1.10;;
27213;SDS011;14723;55.814;37.460;2023-05-07T08:55:17;1.63;;;0.98;;
27213;SDS011;14723;55.814;37.460;2023-05-07T08:58:25;2.55;;;1.08;;
27213;SDS011;14723;55.814;37.460;2023-05-07T09:01:31;2.55;;;1.55;;
27213;SDS011;14723;55.814;37.460;2023-05-07T09:04:38;2.13;;;1.10;;
27213;SDS011;14723;55.814;37.460;2023-05-07T09:07:43;2.13;;;1.52;;
27213;SDS011;14723;55.814;37.460;2023-05-07T09:10:49;5.07;;;1.38;;
27213;SDS011;14723;55.814;37.460;2023-05-07T09:13:58;1.27;;;1.17;;
27213;SDS011;14723;55.814;37.460;2023-05-07T09:17:10;3.65;;;1.60;;
27213;SDS011;14723;55.814;37.460;2023-05-07T09:20:16;1.45;;;1.20;;
27213;SDS011;14723;55.814;37.460;2023-05-07T09:23:21;2.20;;;1.10;;
27213;SDS011;14723;55.814;37.460;2023-05-07T09:26:27;2.97;;;1.05;;
27213;SDS011;14723;55.814;37.460;2023-05-07T09:29:39;2.20;;;1.10;;
27213;SDS011;14723;55.814;37.460;2023-05-07T09:35:53;1.67;;;1.20;;
27213;SDS011;14723;55.814;37.460;2023-05-07T09:38:59;3.75;;;1.20;;
27213;SDS011;14723;55.814;37.460;2023-05-07T09:42:05;1.27;;;1.08;;
27213;SDS011;14723;55.814;37.460;2023-05-07T09:45:13;1.77;;;1.10;;
27213;SDS011;14723;55.814;37.460;2023-05-07T09:48:19;2.10;;;1.13;;
27213;SDS011;14723;55.814;37.460;2023-05-07T09:51:28;1.65;;;1.17;;
27213;SDS011;14723;55.814;37.460;2023-05-07T09:54:35;3.20;;;1.55;;
27213;SDS011;14723;55.814;37.460;2023-05-07T09:57:42;3.80;;;1.33;;
27213;SDS011;14723;55.814;37.460;2023-05-07T10:00:50;4.10;;;1.10;;
27213;SDS011;14723;55.814;37.460;2023-05-07T10:03:56;3.20;;;1.10;;
27213;SDS011;14723;55.814;37.460;2023-05-07T10:07:03;2.63;;;1.30;;
27213;SDS011;14723;55.814;37.460;2023-05-07T10:10:09;1.50;;;1.10;;
27213;SDS011;14723;55.814;37.460;2023-05-07T10:13:17;4.05;;;1.30;;
27213;SDS011;14723;55.814;37.460;2023-05-07T10:16:30;3.85;;;1.40;;
27213;SDS011;14723;55.814;37.460;2023-05-07T10:19:45;4.60;;;1.10;;
27213;SDS011;14723;55.814;37.460;2023-05-07T10:22:50;1.38;;;1.20;;
27213;SDS011;14723;55.814;37.460;2023-05-07T10:26:02;7.22;;;1.48;;
27213;SDS011;14723;55.814;37.460;2023-05-07T10:29:11;1.65;;;1.10;;
27213;SDS011;14723;55.814;37.460;2023-05-07T10:32:33;3.25;;;1.30;;
27213;SDS011;14723;55.814;37.460;2023-05-07T10:35:46;6.95;;;1.70;;
27213;SDS011;14723;55.814;37.460;2023-05-07T10:38:52;3.22;;;1.17;;
27213;SDS011;14723;55.814;37.460;2023-05-07T10:42:07;2.33;;;1.77;;
27213;SDS011;14723;55.814;37.460;2023-05-07T10:45:16;2.35;;;1.33;;
27213;SDS011;14723;55.814;37.460;2023-05-07T10:48:27;3.00;;;1.38;;
27213;SDS011;14723;55.814;37.460;2023-05-07T10:51:38;4.53;;;1.38;;
27213;SDS011;14723;55.814;37.460;2023-05-07T10:58:32;3.58;;;1.60;;
27213;SDS011;14723;55.814;37.460;2023-05-07T11:02:03;3.53;;;1.65;;
27213;SDS011;14723;55.814;37.460;2023-05-07T11:05:22;11.93;;;1.55;;
27213;SDS011;14723;55.814;37.460;2023-05-07T11:08:54;2.28;;;1.50;;
27213;SDS011;14723;55.814;37.460;2023-05-07T11:12:10;2.15;;;1.38;;
27213;SDS011;14723;55.814;37.460;2023-05-07T11:19:04;1.48;;;1.30;;
27213;SDS011;14723;55.814;37.460;2023-05-07T11:25:55;2.15;;;1.20;;
27213;SDS011;14723;55.814;37.460;2023-05-07T11:29:03;1.88;;;1.45;;
27213;SDS011;14723;55.814;37.460;2023-05-07T11:32:22;1.30;;;1.20;;
27213;SDS011;14723;55.814;37.460;2023-05-07T11:35:33;1.95;;;1.30;;
27213;SDS011;14723;55.814;37.460;2023-05-07T11:41:49;2.30;;;1.40;;
27213;SDS011;14723;55.814;37.460;2023-05-07T11:44:54;1.95;;;1.40;;
27213;SDS011;14723;55.814;37.460;2023-05-07T11:48:01;4.15;;;1.80;;
27213;SDS011;14723;55.814;37.460;2023-05-07T11:51:07;2.85;;;1.85;;
27213;SDS011;14723;55.814;37.460;2023-05-07T11:54:17;1.80;;;1.30;;
27213;SDS011;14723;55.814;37.460;2023-05-07T11:57:26;3.25;;;1.52;;
27213;SDS011;14723;55.814;37.460;2023-05-07T12:00:32;1.58;;;1.13;;
27213;SDS011;14723;55.814;37.460;2023-05-07T12:03:39;3.30;;;1.55;;
27213;SDS011;14723;55.814;37.460;2023-05-07T12:06:45;1.27;;;1.17;;
27213;SDS011;14723;55.814;37.460;2023-05-07T12:09:53;4.30;;;1.53;;
27213;SDS011;14723;55.814;37.460;2023-05-07T12:13:01;2.30;;;1.52;;
27213;SDS011;14723;55.814;37.460;2023-05-07T12:16:06;1.48;;;1.38;;
27213;SDS011;14723;55.814;37.460;2023-05-07T12:19:12;6.97;;;1.88;;
27213;SDS011;14723;55.814;37.460;2023-05-07T12:22:17;2.20;;;1.98;;
27213;SDS011;14723;55.814;37.460;2023-05-07T12:25:23;3.22;;;1.70;;
27213;SDS011;14723;55.814;37.460;2023-05-07T12:28:31;3.97;;;1.80;;
27213;SDS011;14723;55.814;37.460;2023-05-07T12:31:45;2.17;;;1.67;;
27213;SDS011;14723;55.814;37.460;2023-05-07T12:34:50;2.38;;;2.03;;
27213;SDS011;14723;55.814;37.460;2023-05-07T12:37:58;3.25;;;1.90;;
27213;SDS011;14723;55.814;37.460;2023-05-07T12:41:07;2.50;;;1.88;;
27213;SDS011;14723;55.814;37.460;2023-05-07T12:44:17;1.98;;;1.50;;
27213;SDS011;14723;55.814;37.460;2023-05-07T12:47:23;1.67;;;1.48;;
27213;SDS011;14723;55.814;37.460;2023-05-07T12:50:30;7.40;;;2.25;;
27213;SDS011;14723;55.814;37.460;2023-05-07T12:53:39;4.70;;;2.30;;
27213;SDS011;14723;55.814;37.460;2023-05-07T12:56:45;2.70;;;1.67;;
27213;SDS011;14723;55.814;37.460;2023-05-07T12:59:57;2.63;;;1.95;;
27213;SDS011;14723;55.814;37.460;2023-05-07T13:03:04;3.45;;;1.75;;
27213;SDS011;14723;55.814;37.460;2023-05-07T13:06:10;2.42;;;1.58;;
27213;SDS011;14723;55.814;37.460;2023-05-07T13:09:15;2.00;;;1.45;;
27213;SDS011;14723;55.814;37.460;2023-05-07T13:12:21;4.78;;;1.77;;
27213;SDS011;14723;55.814;37.460;2023-05-07T13:15:29;5.55;;;2.20;;
27213;SDS011;14723;55.814;37.460;2023-05-07T13:18:34;8.10;;;2.03;;
27213;SDS011;14723;55.814;37.460;2023-05-07T13:21:40;2.85;;;1.80;;
27213;SDS011;14723;55.814;37.460;2023-05-07T13:24:45;8.82;;;1.75;;
27213;SDS011;14723;55.814;37.460;2023-05-07T13:27:51;1.90;;;1.60;;
27213;SDS011;14723;55.814;37.460;2023-05-07T13:31:13;1.88;;;1.65;;
27213;SDS011;14723;55.814;37.460;2023-05-07T13:34:18;2.35;;;1.70;;
27213;SDS011;14723;55.814;37.460;2023-05-07T13:37:24;4.68;;;2.00;;
27213;SDS011;14723;55.814;37.460;2023-05-07T13:40:30;3.83;;;2.00;;
27213;SDS011;14723;55.814;37.460;2023-05-07T13:43:35;4.25;;;1.77;;
27213;SDS011;14723;55.814;37.460;2023-05-07T13:46:43;2.05;;;1.70;;
27213;SDS011;14723;55.814;37.460;2023-05-07T13:49:49;7.32;;;2.28;;
27213;SDS011;14723;55.814;37.460;2023-05-07T13:52:55;3.13;;;2.00;;
27213;SDS011;14723;55.814;37.460;2023-05-07T13:56:00;4.55;;;1.88;;
27213;SDS011;14723;55.814;37.460;2023-05-07T13:59:06;2.85;;;2.10;;
27213;SDS011;14723;55.814;37.460;2023-05-07T14:02:14;3.35;;;1.70;;
27213;SDS011;14723;55.814;37.460;2023-05-07T14:05:20;2.75;;;1.52;;
27213;SDS011;14723;55.814;37.460;2023-05-07T14:08:26;2.72;;;1.70;;
27213;SDS011;14723;55.814;37.460;2023-05-07T14:11:33;2.97;;;1.60;;
27213;SDS011;14723;55.814;37.460;2023-05-07T14:14:38;4.00;;;1.77;;
27213;SDS011;14723;55.814;37.460;2023-05-07T14:17:46;4.18;;;1.88;;
27213;SDS011;14723;55.814;37.460;2023-05-07T14:20:52;2.47;;;1.73;;
27213;SDS011;14723;55.814;37.460;2023-05-07T14:23:57;3.30;;;1.90;;
27213;SDS011;14723;55.814;37.460;2023-05-07T14:27:03;3.05;;;1.50;;
27213;SDS011;14723;55.814;37.460;2023-05-07T14:30:08;4.47;;;2.92;;
27213;SDS011;14723;55.814;37.460;2023-05-07T14:33:17;3.63;;;2.45;;
27213;SDS011;14723;55.814;37.460;2023-05-07T14:36:22;3.13;;;2.05;;
27213;SDS011;14723;55.814;37.460;2023-05-07T14:39:28;3.90;;;1.70;;
27213;SDS011;14723;55.814;37.460;2023-05-07T14:42:33;5.85;;;1.80;;
27213;SDS011;14723;55.814;37.460;2023-05-07T14:45:39;5.10;;;1.83;;
27213;SDS011;14723;55.814;37.460;2023-05-07T14:48:47;3.25;;;1.88;;
27213;SDS011;14723;55.814;37.460;2023-05-07T14:51:52;2.10;;;1.90;;
27213;SDS011;14723;55.814;37.460;2023-05-07T14:54:58;3.60;;;2.10;;
27213;SDS011;14723;55.814;37.460;2023-05-07T14:58:05;3.33;;;1.83;;
27213;SDS011;14723;55.814;37.460;2023-05-07T15:01:10;4.00;;;1.75;;
27213;SDS011;14723;55.814;37.460;2023-05-07T15:04:19;2.60;;;1.88;;
27213;SDS011;14723;55.814;37.460;2023-05-07T15:07:24;2.05;;;1.65;;
27213;SDS011;14723;55.814;37.460;2023-05-07T15:10:29;1.75;;;1.55;;
27213;SDS011;14723;55.814;37.460;2023-05-07T15:13:42;3.95;;;1.85;;
27213;SDS011;14723;55.814;37.460;2023-05-07T15:16:47;5.95;;;1.80;;
27213;SDS011;14723;55.814;37.460;2023-05-07T15:19:55;3.17;;;1.70;;
27213;SDS011;14723;55.814;37.460;2023-05-07T15:23:01;3.25;;;2.03;;
27213;SDS011;14723;55.814;37.460;2023-05-07T15:26:07;4.55;;;1.52;;
27213;SDS011;14723;55.814;37.460;2023-05-07T15:29:13;5.22;;;1.60;;
27213;SDS011;14723;55.814;37.460;2023-05-07T15:32:18;4.65;;;1.73;;
27213;SDS011;14723;55.814;37.460;2023-05-07T15:35:27;2.53;;;2.25;;
27213;SDS011;14723;55.814;37.460;2023-05-07T15:38:32;2.03;;;1.77;;
27213;SDS011;14723;55.814;37.460;2023-05-07T15:41:37;2.60;;;1.77;;
27213;SDS011;14723;55.814;37.460;2023-05-07T15:44:43;4.15;;;2.10;;
27213;SDS011;14723;55.814;37.460;2023-05-07T15:47:48;4.90;;;2.13;;
27213;SDS011;14723;55.814;37.460;2023-05-07T15:50:57;4.60;;;2.03;;
27213;SDS011;14723;55.814;37.460;2023-05-07T15:54:04;2.78;;;1.80;;
27213;SDS011;14723;55.814;37.460;2023-05-07T15:57:10;4.57;;;2.40;;
27213;SDS011;14723;55.814;37.460;2023-05-07T16:00:15;4.47;;;1.80;;
27213;SDS011;14723;55.814;37.460;2023-05-07T16:03:21;1.85;;;1.63;;
27213;SDS011;14723;55.814;37.460;2023-05-07T16:06:29;4.38;;;1.88;;
27213;SDS011;14723;55.814;37.460;2023-05-07T16:09:35;1.80;;;1.70;;
27213;SDS011;14723;55.814;37.460;2023-05-07T16:12:40;2.30;;;1.77;;
27213;SDS011;14723;55.814;37.460;2023-05-07T16:15:46;2.58;;;1.83;;
27213;SDS011;14723;55.814;37.460;2023-05-07T16:18:51;3.67;;;1.83;;
27213;SDS011;14723;55.814;37.460;2023-05-07T16:21:59;5.13;;;2.05;;
27213;SDS011;14723;55.814;37.460;2023-05-07T16:25:05;2.17;;;1.90;;
27213;SDS011;14723;55.814;37.460;2023-05-07T16:28:11;4.50;;;1.60;;
27213;SDS011;14723;55.814;37.460;2023-05-07T16:31:16;4.40;;;2.50;;
27213;SDS011;14723;55.814;37.460;2023-05-07T16:34:22;5.32;;;1.88;;
27213;SDS011;14723;55.814;37.460;2023-05-07T16:37:31;3.60;;;2.00;;
27213;SDS011;14723;55.814;37.460;2023-05-07T16:40:37;3.38;;;1.80;;
27213;SDS011;14723;55.814;37.460;2023-05-07T16:43:43;5.28;;;2.15;;
27213;SDS011;14723;55.814;37.460;2023-05-07T16:46:48;4.60;;;2.17;;
27213;SDS011;14723;55.814;37.460;2023-05-07T16:49:54;9.13;;;2.20;;
27213;SDS011;14723;55.814;37.460;2023-05-07T16:53:04;3.95;;;2.10;;
27213;SDS011;14723;55.814;37.460;2023-05-07T16:56:09;5.57;;;2.20;;
27213;SDS011;14723;55.814;37.460;2023-05-07T16:59:15;5.07;;;2.17;;
27213;SDS011;14723;55.814;37.460;2023-05-07T17:02:20;5.63;;;2.55;;
27213;SDS011;14723;55.814;37.460;2023-05-07T17:05:26;3.22;;;2.15;;
27213;SDS011;14723;55.814;37.460;2023-05-07T17:08:34;8.45;;;2.38;;
27213;SDS011;14723;55.814;37.460;2023-05-07T17:11:43;5.88;;;2.63;;
27213;SDS011;14723;55.814;37.460;2023-05-07T17:14:48;6.10;;;2.63;;
27213;SDS011;14723;55.814;37.460;2023-05-07T17:17:54;7.70;;;3.92;;
27213;SDS011;14723;55.814;37.460;2023-05-07T17:20:59;5.22;;;2.85;;
27213;SDS011;14723;55.814;37.460;2023-05-07T17:24:07;8.45;;;3.38;;
27213;SDS011;14723;55.814;37.460;2023-05-07T17:30:18;7.63;;;3.70;;
27213;SDS011;14723;55.814;37.460;2023-05-07T17:33:23;6.65;;;2.50;;
27213;SDS011;14723;55.814;37.460;2023-05-07T17:36:29;6.25;;;2.70;;
27213;SDS011;14723;55.814;37.460;2023-05-07T17:39:37;5.50;;;3.22;;
27213;SDS011;14723;55.814;37.460;2023-05-07T17:42:43;9.93;;;3.08;;
27213;SDS011;14723;55.814;37.460;2023-05-07T17:45:49;7.20;;;3.00;;
27213;SDS011;14723;55.814;37.460;2023-05-07T17:48:54;11.05;;;3.00;;
27213;SDS011;14723;55.814;37.460;2023-05-07T17:52:00;6.32;;;3.05;;
27213;SDS011;14723;55.814;37.460;2023-05-07T17:55:08;7.75;;;3.05;;
27213;SDS011;14723;55.814;37.460;2023-05-07T17:58:14;11.05;;;3.22;;
27213;SDS011;14723;55.814;37.460;2023-05-07T18:01:20;7.70;;;2.92;;
27213;SDS011;14723;55.814;37.460;2023-05-07T18:04:26;6.60;;;3.38;;
27213;SDS011;14723;55.814;37.460;2023-05-07T18:07:31;6.43;;;2.55;;
27213;SDS011;14723;55.814;37.460;2023-05-07T18:10:40;5.43;;;2.58;;
27213;SDS011;14723;55.814;37.460;2023-05-07T18:13:45;4.45;;;2.35;;
27213;SDS011;14723;55.814;37.460;2023-05-07T18:16:51;6.60;;;2.63;;
27213;SDS011;14723;55.814;37.460;2023-05-07T18:19:56;3.65;;;2.40;;
27213;SDS011;14723;55.814;37.460;2023-05-07T18:26:12;5.53;;;3.03;;
27213;SDS011;14723;55.814;37.460;2023-05-07T18:29:18;6.32;;;2.70;;
27213;SDS011;14723;55.814;37.460;2023-05-07T18:32:23;6.07;;;3.00;;
27213;SDS011;14723;55.814;37.460;2023-05-07T18:35:29;7.68;;;2.97;;
27213;SDS011;14723;55.814;37.460;2023-05-07T18:38:35;7.15;;;3.00;;
27213;SDS011;14723;55.814;37.460;2023-05-07T18:41:43;6.82;;;2.88;;
27213;SDS011;14723;55.814;37.460;2023-05-07T18:44:50;6.07;;;3.33;;
27213;SDS011;14723;55.814;37.460;2023-05-07T18:47:56;7.32;;;2.78;;
27213;SDS011;14723;55.814;37.460;2023-05-07T18:51:02;10.40;;;3.15;;
27213;SDS011;14723;55.814;37.460;2023-05-07T18:54:09;6.75;;;3.08;;
27213;SDS011;14723;55.814;37.460;2023-05-07T18:57:17;8.35;;;3.50;;